createdAt,value
2019-04-11T00:02:33.027Z,6.94
2019-04-11T00:07:38.526Z,6.84
2019-04-11T00:12:43.184Z,6.85
2019-04-11T00:17:50.184Z,6.44
2019-04-11T00:22:54.694Z,6.61
2019-04-11T00:28:01.569Z,6.43
2019-04-11T00:33:06.313Z,6.29
2019-04-11T00:38:12.319Z,6.33
2019-04-11T00:43:29.776Z,6.61
2019-04-11T00:48:23.949Z,6.28
2019-04-11T00:53:29.878Z,6.39
2019-04-11T00:58:36.009Z,6.56
2019-04-11T01:03:41.736Z,6.68
2019-04-11T01:08:48.178Z,6.47
2019-04-11T01:13:55.310Z,6.99
2019-04-11T01:18:58.736Z,6.93
2019-04-11T01:24:05.275Z,6.89
2019-04-11T01:29:11.347Z,7.03
2019-04-11T01:34:18.038Z,6.86
2019-04-11T01:39:23.247Z,6.95
2019-04-11T01:44:28.419Z,6.84
2019-04-11T01:49:34.442Z,6.58
2019-04-11T01:54:40.234Z,6.98
2019-04-11T01:59:46.262Z,6.77
2019-04-11T02:04:52.344Z,6.99
2019-04-11T02:09:58.272Z,6.70
2019-04-11T02:15:04.270Z,6.82
2019-04-11T02:20:10.270Z,6.81
2019-04-11T02:25:16.478Z,6.61
2019-04-11T02:30:22.738Z,7.08
2019-04-11T02:35:28.882Z,6.66
2019-04-11T02:40:33.161Z,7.26
2019-04-11T02:45:50.869Z,7.09
2019-04-11T02:50:45.908Z,7.41
2019-04-11T02:55:51.863Z,7.32
2019-04-11T03:00:57.504Z,7.42
2019-04-11T03:06:02.662Z,7.24
2019-04-11T03:11:07.759Z,7.58
2019-04-11T03:16:27.826Z,8.02
2019-04-11T03:21:21.572Z,7.94
2019-04-11T03:26:24.930Z,7.46
2019-04-11T03:32:05.800Z,7.82
2019-04-11T03:37:13.718Z,7.57
2019-04-11T03:41:53.575Z,7.88
2019-04-11T03:47:01.215Z,7.88
2019-04-11T03:51:52.944Z,8.03
2019-04-11T03:56:57.276Z,7.59
2019-04-11T04:02:03.313Z,7.82
2019-04-11T04:07:08.926Z,7.58
2019-04-11T04:12:14.138Z,7.97
2019-04-11T04:17:19.273Z,7.85
2019-04-11T04:22:24.760Z,7.58
2019-04-11T04:27:30.531Z,8.14
2019-04-11T04:32:36.235Z,8.49
2019-04-11T04:37:41.091Z,7.84
2019-04-11T04:42:50.316Z,8.47
2019-04-11T04:47:54.874Z,7.72
2019-04-11T04:52:58.198Z,7.56
2019-04-11T04:58:04.810Z,8.05
2019-04-11T05:03:09.879Z,7.90
2019-04-11T05:08:14.549Z,8.08
2019-04-11T05:13:21.665Z,7.82
2019-04-11T05:18:26.143Z,8.29
2019-04-11T05:23:32.139Z,7.64
2019-04-11T05:28:39.300Z,8.47
2019-04-11T05:33:43.690Z,8.09
2019-04-11T05:38:50.549Z,7.73
2019-04-11T05:43:55.701Z,7.70
2019-04-11T05:49:02.632Z,10.05
2019-04-11T05:54:08.840Z,7.34
2019-04-11T05:59:14.692Z,7.02
2019-04-11T06:04:20.907Z,7.03
2019-04-11T06:09:23.543Z,7.17
2019-04-11T06:14:29.536Z,6.92
2019-04-11T06:19:35.568Z,7.09
2019-04-11T06:24:42.626Z,7.41
2019-04-11T06:29:47.345Z,7.56
2019-04-11T06:34:53.115Z,8.21
2019-04-11T06:39:59.748Z,8.37
2019-04-11T06:45:04.520Z,8.18
2019-04-11T06:50:11.034Z,8.74
2019-04-11T06:55:15.996Z,7.46
2019-04-11T07:00:23.082Z,7.20
2019-04-11T07:05:27.424Z,8.88
2019-04-11T07:10:34.158Z,6.78
2019-04-11T07:15:39.787Z,5.44
2019-04-11T07:20:45.583Z,5.85
2019-04-11T07:25:50.124Z,5.33
2019-04-11T07:30:56.151Z,4.96
2019-04-11T07:36:02.133Z,5.34
2019-04-11T07:41:08.854Z,5.09
2019-04-11T07:46:14.913Z,5.35
2019-04-11T07:51:19.657Z,4.96
2019-04-11T07:56:25.288Z,5.35
2019-04-11T08:01:31.324Z,5.39
2019-04-11T08:06:37.322Z,5.71
2019-04-11T08:11:44.233Z,5.88
2019-04-11T08:16:48.951Z,5.91
2019-04-11T08:21:54.821Z,5.99
2019-04-11T08:27:00.978Z,5.51
2019-04-11T08:32:07.056Z,5.68
2019-04-11T08:37:13.646Z,5.93
2019-04-11T08:42:18.628Z,6.09
2019-04-11T08:47:24.739Z,6.54
2019-04-11T08:52:31.956Z,6.61
2019-04-11T08:57:36.430Z,6.40
2019-04-11T09:02:42.905Z,6.74
2019-04-11T09:07:49.786Z,6.60
2019-04-11T09:12:55.113Z,6.65
2019-04-11T09:18:04.211Z,6.25
2019-04-11T09:23:05.828Z,6.68
2019-04-11T09:28:11.356Z,6.40
2019-04-11T09:33:17.189Z,6.42
2019-04-11T09:38:22.173Z,6.79
2019-04-11T09:43:28.236Z,6.33
2019-04-11T09:48:33.694Z,6.90
2019-04-11T09:53:38.800Z,4.97
2019-04-11T09:58:44.208Z,6.72
2019-04-11T10:03:50.803Z,7.85
2019-04-11T10:08:55.492Z,7.19
2019-04-11T10:14:01.700Z,5.71
2019-04-11T10:19:07.588Z,7.73
2019-04-11T10:24:15.796Z,6.88
2019-04-11T10:29:19.040Z,5.55
2019-04-11T10:34:24.083Z,5.58
2019-04-11T10:39:30.321Z,5.97
2019-04-11T10:44:36.560Z,6.99
2019-04-11T10:49:42.692Z,6.37
2019-04-11T10:54:49.176Z,7.16
2019-04-11T10:59:55.115Z,6.52
2019-04-11T11:05:01.205Z,5.64
2019-04-11T11:10:09.261Z,6.38
2019-04-11T11:15:15.465Z,5.49
2019-04-11T11:20:27.430Z,6.57
2019-04-11T11:25:26.750Z,6.07
2019-04-11T11:30:31.634Z,6.82
2019-04-11T11:35:40.562Z,6.91
2019-04-11T11:40:44.708Z,6.40
2019-04-11T11:45:52.380Z,5.90
2019-04-11T11:50:55.673Z,5.68
2019-04-11T11:56:02.116Z,5.33
2019-04-11T12:01:09.414Z,5.81
2019-04-11T12:06:13.040Z,5.77
2019-04-11T12:11:19.473Z,6.15
2019-04-11T12:16:25.917Z,6.21
2019-04-11T12:21:31.444Z,6.11
2019-04-11T12:26:37.929Z,6.25
2019-04-11T12:31:44.011Z,6.38
2019-04-11T12:36:50.981Z,6.29
2019-04-11T12:41:55.146Z,6.80
2019-04-11T12:47:01.146Z,5.60
2019-04-11T12:52:07.192Z,6.43
2019-04-11T12:57:13.313Z,6.94
2019-04-11T13:02:19.379Z,5.35
2019-04-11T13:07:25.410Z,6.25
2019-04-11T13:12:31.437Z,5.68
2019-04-11T13:17:37.584Z,6.31
2019-04-11T13:22:43.627Z,5.26
2019-04-11T13:27:49.607Z,5.30
2019-04-11T13:32:55.598Z,6.10
2019-04-11T13:38:01.678Z,4.80
2019-04-11T13:43:07.719Z,5.73
2019-04-11T13:48:13.915Z,5.94
2019-04-11T13:53:20.154Z,5.04
2019-04-11T13:58:26.185Z,6.67
2019-04-11T14:03:32.181Z,4.26
2019-04-11T14:08:38.344Z,7.40
2019-04-11T14:13:44.359Z,5.58
2019-04-11T14:18:50.579Z,6.35
2019-04-11T14:23:56.566Z,6.16
2019-04-11T14:29:02.652Z,4.73
2019-04-11T14:34:08.654Z,5.01
2019-04-11T14:39:14.638Z,4.69
2019-04-11T14:44:20.926Z,5.51
2019-04-11T14:49:27.195Z,5.37
2019-04-11T14:54:32.975Z,6.44
2019-04-11T14:59:39.174Z,5.26
2019-04-11T15:04:45.219Z,5.36
2019-04-11T15:09:51.232Z,5.67
2019-04-11T15:14:57.266Z,5.81
2019-04-11T15:20:03.316Z,4.63
2019-04-11T15:25:09.380Z,5.81
2019-04-11T15:30:16.839Z,4.45
2019-04-11T15:35:21.049Z,5.66
2019-04-11T15:40:27.071Z,5.52
2019-04-11T15:45:33.078Z,5.36
2019-04-11T15:50:39.129Z,4.64
2019-04-11T15:55:45.173Z,6.47
2019-04-11T16:00:51.190Z,6.15
2019-04-11T16:05:57.257Z,6.23
2019-04-11T16:11:03.321Z,5.45
2019-04-11T16:16:12.111Z,5.60
2019-04-11T16:21:18.569Z,5.01
2019-04-11T16:26:21.512Z,5.98
2019-04-11T16:31:27.506Z,6.54
2019-04-11T16:36:33.740Z,5.86
2019-04-11T16:41:40.513Z,6.43
2019-04-11T16:46:47.683Z,6.12
2019-04-11T16:51:53.812Z,5.32
2019-04-11T16:56:59.912Z,6.31
2019-04-11T17:02:05.964Z,5.36
2019-04-11T17:07:12.006Z,7.09
2019-04-11T17:12:18.072Z,6.07
2019-04-11T17:17:26.274Z,5.53
2019-04-11T17:22:29.939Z,5.49
2019-04-11T17:27:35.993Z,5.88
2019-04-11T17:32:42.044Z,6.11
2019-04-11T17:37:48.092Z,6.47
2019-04-11T17:42:54.174Z,5.76
2019-04-11T17:48:00.174Z,6.06
2019-04-11T17:53:06.206Z,5.65
2019-04-11T17:58:12.262Z,6.31
2019-04-11T18:03:18.442Z,6.64
2019-04-11T18:08:24.483Z,5.44
2019-04-11T18:13:31.522Z,6.65
2019-04-11T18:18:36.365Z,6.01
2019-04-11T18:23:42.388Z,6.41
2019-04-11T18:28:51.737Z,6.41
2019-04-11T18:33:54.278Z,4.66
2019-04-11T18:39:05.636Z,6.98
2019-04-11T18:44:06.204Z,5.96
2019-04-11T18:49:12.247Z,5.54
2019-04-11T18:54:18.264Z,6.79
2019-04-11T18:59:24.402Z,4.72
2019-04-11T19:04:32.722Z,6.54
2019-04-11T19:09:36.003Z,4.78
2019-04-11T19:14:43.856Z,6.74
2019-04-11T19:19:48.859Z,6.94
2019-04-11T19:24:53.410Z,6.93
2019-04-11T19:29:59.570Z,6.72
2019-04-11T19:35:05.694Z,5.59
2019-04-11T19:40:16.182Z,5.68
2019-04-11T19:45:19.451Z,6.52
2019-04-11T19:50:23.284Z,6.00
2019-04-11T19:55:29.314Z,5.38
2019-04-11T20:00:35.712Z,5.25
2019-04-11T20:05:42.153Z,6.59
2019-04-11T20:10:48.837Z,6.83
2019-04-11T20:15:54.927Z,5.11
2019-04-11T20:21:01.686Z,6.09
2019-04-11T20:26:07.763Z,6.81
2019-04-11T20:31:13.822Z,6.60
2019-04-11T20:36:19.835Z,6.92
2019-04-11T20:41:25.888Z,6.11
2019-04-11T20:46:31.979Z,7.28
2019-04-11T20:51:38.177Z,7.35
2019-04-11T20:56:44.186Z,7.19
2019-04-11T21:01:50.181Z,6.95
2019-04-11T21:06:56.221Z,7.32
2019-04-11T21:12:02.242Z,6.53
2019-04-11T21:17:08.316Z,6.75
2019-04-11T21:22:14.375Z,7.23
2019-04-11T21:27:20.403Z,7.19
2019-04-11T21:32:26.405Z,6.72
2019-04-11T21:37:32.471Z,7.01
2019-04-11T21:42:38.523Z,6.64
2019-04-11T21:47:44.498Z,6.99
2019-04-11T21:52:50.630Z,6.69
2019-04-11T21:57:56.636Z,6.57
2019-04-11T22:03:02.670Z,6.44
2019-04-11T22:08:08.733Z,6.63
2019-04-11T22:13:14.756Z,5.33
2019-04-11T22:18:20.749Z,6.52
2019-04-11T22:23:26.772Z,6.21
2019-04-11T22:28:32.771Z,6.37
2019-04-11T22:33:38.857Z,6.64
2019-04-11T22:38:44.971Z,6.44
2019-04-11T22:43:50.942Z,6.27
2019-04-11T22:48:57.105Z,6.37
2019-04-11T22:54:03.479Z,6.37
2019-04-11T22:59:13.783Z,6.09
2019-04-11T23:04:17.147Z,6.32
2019-04-11T23:09:20.757Z,5.92
2019-04-11T23:14:26.818Z,5.94
2019-04-11T23:19:32.817Z,5.76
2019-04-11T23:24:38.789Z,5.82
2019-04-11T23:29:47.066Z,5.21
2019-04-11T23:34:52.793Z,5.86
2019-04-11T23:39:56.033Z,5.38
2019-04-11T23:45:02.009Z,5.98
2019-04-11T23:50:08.044Z,5.55
2019-04-11T23:55:14.052Z,5.63
